Time;durP1;ratioP1;P1;durP2;ratioP2;P2;SDS_P1;SDS_P2;PMS_P1;PMS_P2;Temp;Humidity;BMP_temperature;BMP_pressure;BME280_temperature;BME280_humidity;BME280_pressure;Samples;Min_cycle;Max_cycle;Signal;HPM_P1;HPM_P2
2021/11/27 00:00:46;;;;;;;6.47;4.53;;;;;;;3.42;78.40;97935.53;5048167;28;20213;-79
2021/11/27 00:03:14;;;;;;;7.83;5.13;;;;;;;3.42;78.44;97936.38;5049004;28;20205;-79
2021/11/27 00:05:42;;;;;;;8.37;5.33;;;;;;;3.44;78.31;97933.63;5055306;28;20205;-80
2021/11/27 00:08:10;;;;;;;8.07;5.07;;;;;;;3.43;78.04;97924.91;5050156;28;20230;-79
2021/11/27 00:10:39;;;;;;;9.77;5.07;;;;;;;3.42;78.12;97920.59;5053646;28;20236;-78
2021/11/27 00:13:06;;;;;;;8.57;5.40;;;;;;;3.43;78.37;97919.66;5038325;28;20205;-78
2021/11/27 00:15:34;;;;;;;7.33;4.90;;;;;;;3.44;77.73;97916.06;5047755;28;20202;-79
2021/11/27 00:18:01;;;;;;;7.93;5.40;;;;;;;3.43;77.40;97922.28;5045904;28;20288;-79
2021/11/27 00:20:31;;;;;;;7.53;5.47;;;;;;;3.42;77.92;97912.72;5058595;28;20241;-78
2021/11/27 00:22:59;;;;;;;7.27;5.50;;;;;;;3.41;77.38;97921.56;5044939;28;20216;-78
2021/11/27 00:25:26;;;;;;;7.40;5.47;;;;;;;3.41;77.47;97918.09;5039917;28;20680;-79
2021/11/27 00:27:52;;;;;;;7.13;4.87;;;;;;;3.38;77.47;97919.19;5051603;28;20210;-79
2021/11/27 00:30:25;;;;;;;8.80;4.90;;;;;;;3.37;77.73;97921.94;5025083;28;20226;-79
2021/11/27 00:32:51;;;;;;;10.93;4.90;;;;;;;3.36;78.09;97918.47;5033490;28;20214;-79
2021/11/27 00:35:20;;;;;;;8.53;5.57;;;;;;;3.35;78.32;97913.31;5057472;28;20872;-80
2021/11/27 00:37:47;;;;;;;7.17;5.50;;;;;;;3.33;78.03;97910.81;5029731;28;20217;-80
2021/11/27 00:40:16;;;;;;;6.70;4.50;;;;;;;3.34;77.77;97911.63;5048023;28;20229;-79
2021/11/27 00:42:42;;;;;;;8.03;5.13;;;;;;;3.32;78.12;97901.22;5055279;28;20614;-79
2021/11/27 00:45:12;;;;;;;7.50;4.97;;;;;;;3.33;77.89;97909.97;5058841;28;20212;-79
2021/11/27 00:47:39;;;;;;;7.00;4.90;;;;;;;3.31;78.24;97904.81;5054535;28;20205;-79
2021/11/27 00:50:07;;;;;;;6.83;4.73;;;;;;;3.32;77.90;97910.91;5057530;28;20233;-79
2021/11/27 00:52:34;;;;;;;6.87;4.53;;;;;;;3.32;78.54;97909.13;5058020;28;20210;-79
2021/11/27 00:55:01;;;;;;;6.07;4.00;;;;;;;3.33;78.06;97913.44;5056773;28;20300;-79
2021/11/27 00:57:29;;;;;;;5.80;4.20;;;;;;;3.37;78.71;97908.78;5054859;28;20593;-79
2021/11/27 00:59:56;;;;;;;7.67;4.63;;;;;;;3.38;78.88;97908.66;5057221;28;20233;-79
2021/11/27 01:02:22;;;;;;;6.83;4.97;;;;;;;3.36;78.68;97902.69;5041566;28;20202;-80
2021/11/27 01:04:49;;;;;;;6.13;4.70;;;;;;;3.35;78.35;97900.16;5047570;28;20681;-79
2021/11/27 01:07:16;;;;;;;6.93;5.07;;;;;;;3.34;79.26;97907.22;5042982;28;20618;-79
2021/11/27 01:09:42;;;;;;;9.33;4.83;;;;;;;3.31;78.62;97910.09;5058324;28;20240;-80
2021/11/27 01:12:09;;;;;;;6.33;4.50;;;;;;;3.32;78.96;97909.13;5057303;28;20730;-80
2021/11/27 01:14:37;;;;;;;6.60;4.23;;;;;;;3.32;79.38;97905.66;5050915;28;20668;-80
2021/11/27 01:17:07;;;;;;;6.70;4.43;;;;;;;3.29;78.97;97909.34;5051277;28;20217;-80
2021/11/27 01:19:36;;;;;;;6.40;4.87;;;;;;;3.28;79.66;97914.72;5056334;28;20316;-80
2021/11/27 01:22:10;;;;;;;7.33;4.50;;;;;;;3.26;79.34;97903.50;5057884;28;20205;-80
2021/11/27 01:24:37;;;;;;;6.13;4.13;;;;;;;3.25;80.21;97897.41;5057993;28;20205;-81
2021/11/27 01:27:04;;;;;;;6.77;4.50;;;;;;;3.24;80.13;97895.72;5044927;28;20208;-79
2021/11/27 01:29:31;;;;;;;6.80;4.30;;;;;;;3.23;79.82;97888.78;5043622;28;20235;-79
2021/11/27 01:31:59;;;;;;;6.73;4.30;;;;;;;3.21;80.30;97888.09;5030106;28;20210;-79
2021/11/27 01:34:26;;;;;;;6.17;4.57;;;;;;;3.21;80.79;97893.34;5035079;28;20224;-79
2021/11/27 01:36:53;;;;;;;5.73;4.03;;;;;;;3.20;80.18;97896.94;5045864;28;20219;-80
2021/11/27 01:39:19;;;;;;;6.00;4.30;;;;;;;3.18;80.64;97896.22;5059064;28;20234;-80
2021/11/27 01:41:46;;;;;;;6.93;4.43;;;;;;;3.17;80.94;97885.81;5045952;28;20206;-79
2021/11/27 01:44:13;;;;;;;6.17;4.00;;;;;;;3.16;80.99;97889.38;5055601;28;20523;-79
2021/11/27 01:46:39;;;;;;;6.37;3.80;;;;;;;3.14;80.19;97889.50;5046258;28;20589;-79
2021/11/27 01:49:09;;;;;;;6.70;4.23;;;;;;;3.11;80.66;97879.22;5043727;28;20233;-79
2021/11/27 01:51:36;;;;;;;5.77;3.60;;;;;;;3.11;81.05;97889.75;5041377;28;20218;-78
2021/11/27 01:54:07;;;;;;;4.67;2.90;;;;;;;3.08;81.29;97882.06;5038530;28;20226;-79
2021/11/27 01:56:38;;;;;;;5.30;3.67;;;;;;;3.07;81.49;97883.88;5048307;28;20206;-80
2021/11/27 01:59:05;;;;;;;6.20;3.30;;;;;;;3.05;80.76;97885.78;5029140;28;20222;-80
2021/11/27 02:01:33;;;;;;;6.57;3.70;;;;;;;3.04;81.16;97883.28;5043723;28;20216;-80
2021/11/27 02:04:00;;;;;;;5.63;3.23;;;;;;;3.04;80.92;97883.28;5051138;28;20592;-80
2021/11/27 02:06:28;;;;;;;5.07;3.47;;;;;;;3.03;81.64;97887.72;5056285;28;20659;-80
2021/11/27 02:08:58;;;;;;;5.23;3.27;;;;;;;3.06;81.56;97878.72;5040029;28;20237;-80
2021/11/27 02:11:29;;;;;;;4.23;3.47;;;;;;;3.03;81.76;97874.56;5041793;28;20209;-79
2021/11/27 02:13:56;;;;;;;4.57;3.47;;;;;;;3.03;81.85;97881.63;5048006;28;20203;-79
2021/11/27 02:16:23;;;;;;;4.67;3.00;;;;;;;3.02;82.00;97872.06;5056152;28;20217;-79
2021/11/27 02:18:50;;;;;;;5.20;3.23;;;;;;;3.04;81.47;97885.94;5037407;28;20219;-79
2021/11/27 02:21:20;;;;;;;5.50;3.70;;;;;;;3.05;82.09;97879.69;5056070;28;20202;-80
2021/11/27 02:23:48;;;;;;;3.80;2.90;;;;;;;3.05;81.93;97872.63;5041306;28;20233;-80
2021/11/27 02:26:17;;;;;;;4.83;3.90;;;;;;;3.04;81.99;97873.63;5052671;28;20648;-78
2021/11/27 02:28:47;;;;;;;4.30;3.20;;;;;;;3.05;81.84;97877.88;5052415;28;20248;-79
2021/11/27 02:31:14;;;;;;;4.73;3.73;;;;;;;3.06;81.16;97878.72;5049525;28;20217;-79
2021/11/27 02:33:41;;;;;;;4.13;3.20;;;;;;;3.06;81.54;97876.09;5044483;28;20216;-79
2021/11/27 02:36:07;;;;;;;4.50;3.17;;;;;;;3.08;82.20;97877.66;5041370;28;20213;-79
2021/11/27 02:38:36;;;;;;;4.00;3.10;;;;;;;3.09;81.18;97883.75;5045782;28;20215;-79
2021/11/27 02:41:02;;;;;;;4.63;3.70;;;;;;;3.08;81.97;97876.81;5026607;28;20207;-79
2021/11/27 02:43:29;;;;;;;6.60;3.60;;;;;;;3.09;82.14;97881.13;5055960;28;20217;-81
2021/11/27 02:45:56;;;;;;;4.43;3.43;;;;;;;3.10;82.02;97882.81;5055817;28;20209;-81
2021/11/27 02:48:23;;;;;;;5.20;3.47;;;;;;;3.11;82.00;97885.31;5055999;28;20228;-80
2021/11/27 02:50:50;;;;;;;4.87;3.60;;;;;;;3.10;81.12;97883.63;5050107;28;20240;-81
2021/11/27 02:53:16;;;;;;;4.63;3.70;;;;;;;3.12;81.38;97889.63;5052020;28;20210;-81
2021/11/27 02:55:45;;;;;;;5.00;4.23;;;;;;;3.14;81.81;97889.50;5056771;28;20236;-80
2021/11/27 02:58:11;;;;;;;5.20;3.87;;;;;;;3.15;81.57;97891.19;5047395;28;20207;-80
2021/11/27 03:00:38;;;;;;;5.03;3.43;;;;;;;3.17;81.41;97891.06;5028476;28;20305;-80
2021/11/27 03:03:05;;;;;;;4.13;3.30;;;;;;;3.17;81.92;97883.19;5024880;28;20211;-80
2021/11/27 03:05:32;;;;;;;4.53;3.53;;;;;;;3.18;81.55;97883.06;5023948;28;20221;-79
2021/11/27 03:07:58;;;;;;;4.77;3.57;;;;;;;3.19;81.33;97878.63;5026501;28;20203;-79
2021/11/27 03:10:25;;;;;;;4.63;3.43;;;;;;;3.20;81.42;97878.53;5039092;28;20241;-79
2021/11/27 03:12:54;;;;;;;4.07;3.13;;;;;;;3.22;81.29;97875.78;5030256;28;20236;-80
2021/11/27 03:15:21;;;;;;;3.40;3.10;;;;;;;3.24;81.77;97873.84;5049379;28;20202;-79
2021/11/27 03:17:49;;;;;;;4.83;3.37;;;;;;;3.23;81.24;97878.25;5038385;28;20279;-79
2021/11/27 03:20:18;;;;;;;4.70;3.30;;;;;;;3.25;80.60;97878.97;5051248;28;20229;-79
2021/11/27 03:22:45;;;;;;;4.67;3.43;;;;;;;3.26;80.71;97878.03;5046679;28;20208;-79
2021/11/27 03:25:13;;;;;;;4.87;3.77;;;;;;;3.27;81.21;97884.13;5041195;28;20207;-78
2021/11/27 03:27:41;;;;;;;4.13;3.37;;;;;;;3.28;81.16;97878.75;5057894;28;20214;-80
2021/11/27 03:30:13;;;;;;;4.57;2.80;;;;;;;3.28;81.16;97883.16;5030276;28;20234;-80
2021/11/27 03:32:40;;;;;;;3.80;2.93;;;;;;;3.28;81.05;97884.00;5041172;28;20194;-79
2021/11/27 03:35:09;;;;;;;4.30;3.33;;;;;;;3.29;80.17;97880.44;5018509;28;20270;-79
2021/11/27 03:37:35;;;;;;;4.33;3.10;;;;;;;3.29;80.56;97883.06;5031773;28;20209;-80
2021/11/27 03:40:02;;;;;;;4.50;3.10;;;;;;;3.31;80.42;97888.19;5059390;28;20232;-79
2021/11/27 03:42:29;;;;;;;4.67;3.43;;;;;;;3.30;80.68;97887.38;5028498;28;20210;-80
2021/11/27 03:44:56;;;;;;;3.10;2.30;;;;;;;3.32;80.20;97885.44;5038978;28;20213;-80
2021/11/27 03:47:23;;;;;;;4.27;3.53;;;;;;;3.31;80.87;97886.41;5042887;28;20206;-79
2021/11/27 03:49:53;;;;;;;4.43;3.00;;;;;;;3.32;79.94;97892.50;5037161;28;20303;-80
2021/11/27 03:52:20;;;;;;;4.13;3.10;;;;;;;3.32;80.54;97887.25;5037101;28;20302;-79
2021/11/27 03:54:48;;;;;;;3.50;3.10;;;;;;;3.34;79.65;97893.22;5030448;28;20211;-78
2021/11/27 03:57:15;;;;;;;6.13;3.20;;;;;;;3.36;80.31;97893.94;5024278;28;20207;-79
2021/11/27 03:59:42;;;;;;;4.50;3.40;;;;;;;3.35;80.53;97897.53;5033719;28;20924;-79
2021/11/27 04:02:08;;;;;;;5.43;3.93;;;;;;;3.34;79.78;97891.44;5043930;28;20660;-79
2021/11/27 04:04:38;;;;;;;5.73;4.37;;;;;;;3.35;79.80;97895.75;5037006;28;20246;-79
2021/11/27 04:07:05;;;;;;;5.23;3.63;;;;;;;3.36;80.02;97899.22;5049731;28;20209;-78
2021/11/27 04:09:33;;;;;;;4.07;3.23;;;;;;;3.39;80.42;97893.72;5062416;28;20241;-80
2021/11/27 04:11:59;;;;;;;3.13;2.80;;;;;;;3.37;79.51;97896.47;5039800;28;20214;-81
2021/11/27 04:14:26;;;;;;;3.93;2.90;;;;;;;3.38;79.45;97902.56;5059142;28;20216;-80
2021/11/27 04:16:52;;;;;;;4.50;3.60;;;;;;;3.38;79.99;97897.31;5033682;28;20704;-80
2021/11/27 04:19:19;;;;;;;5.17;3.17;;;;;;;3.36;79.40;97902.69;5052689;28;20243;-78
2021/11/27 04:21:47;;;;;;;4.70;3.10;;;;;;;3.36;79.74;97900.03;5042005;28;20213;-79
2021/11/27 04:24:13;;;;;;;5.23;2.90;;;;;;;3.37;79.70;97896.47;5037058;28;20220;-79
2021/11/27 04:26:40;;;;;;;5.20;3.60;;;;;;;3.38;79.74;97903.41;5046112;28;20211;-79
2021/11/27 04:29:06;;;;;;;2.83;2.53;;;;;;;3.39;80.04;97902.44;5043721;28;20720;-79
2021/11/27 04:31:33;;;;;;;3.63;2.77;;;;;;;3.39;79.44;97905.06;5057501;28;20212;-80
2021/11/27 04:33:59;;;;;;;4.33;2.87;;;;;;;3.40;79.54;97909.34;5041481;28;20209;-79
2021/11/27 04:36:26;;;;;;;4.10;2.43;;;;;;;3.41;79.71;97899.66;5054031;28;20217;-79
2021/11/27 04:38:54;;;;;;;3.40;2.43;;;;;;;3.41;79.82;97900.50;5062024;28;20252;-80
2021/11/27 04:41:21;;;;;;;2.77;2.50;;;;;;;3.42;79.39;97906.59;5060156;28;20213;-78
2021/11/27 04:43:47;;;;;;;3.00;2.27;;;;;;;3.44;79.44;97913.44;5032755;28;20237;-79
2021/11/27 04:46:14;;;;;;;2.77;2.10;;;;;;;3.44;79.41;97918.69;5044003;28;20208;-79
2021/11/27 04:48:41;;;;;;;3.13;2.20;;;;;;;3.44;79.60;97918.69;5055834;28;20288;-81
2021/11/27 04:51:07;;;;;;;2.20;1.90;;;;;;;3.45;79.03;97932.69;5048467;28;20724;-80
2021/11/27 04:53:34;;;;;;;2.77;2.10;;;;;;;3.46;79.59;97927.31;5051964;28;20221;-80
2021/11/27 04:56:02;;;;;;;2.40;1.83;;;;;;;3.47;78.82;97928.97;5041995;28;20203;-81
2021/11/27 04:58:29;;;;;;;2.70;2.10;;;;;;;3.47;78.87;97925.50;5032687;28;20210;-79
2021/11/27 05:00:56;;;;;;;2.00;1.80;;;;;;;3.47;78.87;97931.59;5060688;28;20210;-79
2021/11/27 05:03:23;;;;;;;2.00;1.80;;;;;;;3.46;79.05;97932.56;5037720;28;20212;-79
2021/11/27 05:05:50;;;;;;;2.90;2.03;;;;;;;3.45;78.77;97936.16;5048033;28;20205;-80
2021/11/27 05:08:16;;;;;;;1.87;1.77;;;;;;;3.45;78.89;97936.16;5050652;28;20203;-79
2021/11/27 05:10:44;;;;;;;2.77;2.10;;;;;;;3.46;78.89;97939.63;5053484;28;20243;-79
2021/11/27 05:13:12;;;;;;;2.20;2.00;;;;;;;3.44;79.42;97939.75;5053685;28;20655;-79
2021/11/27 05:15:39;;;;;;;2.60;2.10;;;;;;;3.44;78.85;97934.47;5031309;28;20680;-78
2021/11/27 05:18:05;;;;;;;2.83;2.40;;;;;;;3.45;79.58;97940.56;5055924;28;20220;-80
2021/11/27 05:20:32;;;;;;;2.23;2.00;;;;;;;3.43;79.66;97938.06;5047439;28;20241;-79
2021/11/27 05:22:59;;;;;;;3.67;2.20;;;;;;;3.43;79.42;97939.84;5052625;28;20704;-79
2021/11/27 05:25:25;;;;;;;2.97;2.20;;;;;;;3.40;79.58;97938.28;5038366;28;20206;-78
2021/11/27 05:27:52;;;;;;;3.90;2.70;;;;;;;3.39;79.50;97943.69;5053113;28;20232;-79
2021/11/27 05:30:21;;;;;;;4.00;2.50;;;;;;;3.39;79.85;97941.06;5051223;28;20232;-79
2021/11/27 05:35:31;;;;;;;3.10;2.30;;;;;;;3.36;79.82;97939.50;5048350;28;20313;-79
2021/11/27 05:37:58;;;;;;;3.77;2.90;;;;;;;3.34;80.37;97940.56;5045621;28;20219;-78
2021/11/27 05:40:24;;;;;;;3.50;2.53;;;;;;;3.33;80.80;97942.38;5038356;28;20228;-79
2021/11/27 05:42:51;;;;;;;4.67;3.23;;;;;;;3.31;79.90;97939.00;5043360;28;20677;-79
2021/11/27 05:45:19;;;;;;;3.50;2.80;;;;;;;3.29;80.47;97946.19;5050774;28;20236;-79
2021/11/27 05:47:47;;;;;;;3.60;2.87;;;;;;;3.29;80.64;97948.81;5052415;28;20232;-79
2021/11/27 05:50:13;;;;;;;3.83;2.97;;;;;;;3.28;81.15;97941.88;5034337;28;20229;-79
2021/11/27 05:52:40;;;;;;;3.77;3.10;;;;;;;3.27;80.36;97942.84;5052114;28;20209;-79
2021/11/27 05:55:07;;;;;;;5.63;3.60;;;;;;;3.28;80.80;97944.50;5045409;28;20214;-79
2021/11/27 05:57:34;;;;;;;4.33;3.10;;;;;;;3.27;81.43;97952.50;5027939;28;20210;-79
2021/11/27 06:00:01;;;;;;;3.57;2.90;;;;;;;3.27;81.53;97955.97;5045405;28;20258;-79
2021/11/27 06:02:27;;;;;;;5.20;3.23;;;;;;;3.27;81.22;97950.72;5031509;28;20642;-79
2021/11/27 06:04:55;;;;;;;4.03;3.10;;;;;;;3.28;81.30;97959.44;5034355;28;20203;-79
2021/11/27 06:07:22;;;;;;;4.33;3.50;;;;;;;3.27;81.73;97955.97;5053487;28;20205;-80
2021/11/27 06:09:48;;;;;;;4.00;3.30;;;;;;;3.27;81.62;97965.66;5055983;28;20229;-79
2021/11/27 06:12:15;;;;;;;5.23;3.10;;;;;;;3.26;80.96;97967.47;5029831;28;20674;-79
2021/11/27 06:14:42;;;;;;;4.53;3.20;;;;;;;3.26;81.04;97977.97;5029289;28;20710;-79
2021/11/27 06:17:08;;;;;;;4.63;3.23;;;;;;;3.25;81.71;97973.66;5037772;28;20708;-80
2021/11/27 06:19:35;;;;;;;3.90;3.50;;;;;;;3.26;81.77;97969.25;5054312;28;20236;-78
2021/11/27 06:22:03;;;;;;;3.77;3.33;;;;;;;3.27;81.99;97984.91;5050729;28;20201;-79
2021/11/27 06:24:29;;;;;;;5.07;3.50;;;;;;;3.26;81.24;97982.41;5050496;28;20209;-79
2021/11/27 06:26:56;;;;;;;5.57;3.97;;;;;;;3.27;81.69;97991.97;5048113;28;20546;-79
2021/11/27 06:29:22;;;;;;;5.80;3.73;;;;;;;3.28;81.23;97986.59;5053155;28;20239;-79
2021/11/27 06:31:49;;;;;;;5.10;3.57;;;;;;;3.28;81.37;97986.59;5028579;28;20689;-80
2021/11/27 06:34:17;;;;;;;5.37;3.33;;;;;;;3.29;81.22;97988.28;5030004;28;20255;-78
2021/11/27 06:36:44;;;;;;;3.70;2.90;;;;;;;3.29;82.12;97988.28;5048352;28;20683;-79
2021/11/27 06:39:12;;;;;;;3.83;3.33;;;;;;;3.30;81.82;97995.22;5053173;28;20221;-79
2021/11/27 06:41:38;;;;;;;4.53;3.23;;;;;;;3.31;81.65;98001.31;5040687;28;20204;-80
2021/11/27 06:44:05;;;;;;;4.57;3.50;;;;;;;3.31;81.31;98002.16;5037283;28;20725;-79
2021/11/27 06:46:32;;;;;;;4.70;3.37;;;;;;;3.30;81.87;97997.84;5051341;28;20206;-79
2021/11/27 06:48:58;;;;;;;4.83;3.23;;;;;;;3.32;81.56;97997.72;5058573;28;20233;-79
2021/11/27 06:51:25;;;;;;;4.00;3.20;;;;;;;3.32;81.32;97992.47;5047834;28;20681;-79
2021/11/27 06:53:51;;;;;;;4.50;3.53;;;;;;;3.33;81.76;98000.25;5047244;28;20220;-80
2021/11/27 06:56:19;;;;;;;4.50;3.73;;;;;;;3.34;82.07;97999.28;5030298;28;20209;-79
2021/11/27 06:58:46;;;;;;;4.73;3.80;;;;;;;3.35;81.33;98003.59;5051712;28;20331;-79
2021/11/27 07:01:12;;;;;;;4.83;3.90;;;;;;;3.36;81.34;98000.00;5044657;28;20217;-79
2021/11/27 07:03:39;;;;;;;4.20;3.50;;;;;;;3.37;81.28;98003.47;5025720;28;20203;-78
2021/11/27 07:06:05;;;;;;;5.03;3.60;;;;;;;3.37;81.94;98004.31;5034560;28;20757;-80
2021/11/27 07:08:32;;;;;;;4.53;3.53;;;;;;;3.38;81.31;98008.63;5054211;28;20685;-79
2021/11/27 07:10:58;;;;;;;5.60;4.07;;;;;;;3.39;81.10;98014.72;5033821;28;20223;-78
2021/11/27 07:13:26;;;;;;;8.07;4.77;;;;;;;3.40;81.56;98017.22;5025438;28;20599;-79
2021/11/27 07:15:53;;;;;;;5.33;3.77;;;;;;;3.40;81.83;98017.22;5043233;28;20221;-80
2021/11/27 07:18:19;;;;;;;4.77;3.40;;;;;;;3.41;81.25;98026.78;5026668;28;20217;-79
2021/11/27 07:20:46;;;;;;;5.07;3.60;;;;;;;3.42;81.33;98022.38;5024999;28;20569;-79
2021/11/27 07:23:13;;;;;;;5.30;3.63;;;;;;;3.43;82.01;98024.03;5028875;28;20205;-79
2021/11/27 07:25:40;;;;;;;5.83;3.70;;;;;;;3.44;81.84;98023.94;5024881;28;20274;-79
2021/11/27 07:28:09;;;;;;;5.70;3.87;;;;;;;3.45;81.95;98028.25;5050626;28;20296;-80
2021/11/27 07:30:37;;;;;;;6.70;4.10;;;;;;;3.47;81.49;98039.50;5031881;28;20230;-79
2021/11/27 07:33:03;;;;;;;4.83;3.70;;;;;;;3.48;81.79;98035.91;5032827;28;20210;-79
2021/11/27 07:35:30;;;;;;;5.20;4.33;;;;;;;3.49;82.01;98037.59;5041484;28;20584;-80
2021/11/27 07:37:57;;;;;;;5.07;3.80;;;;;;;3.49;81.34;98045.47;5032574;28;20207;-79
2021/11/27 07:40:24;;;;;;;6.90;4.90;;;;;;;3.51;81.41;98049.78;5040190;28;20235;-79
2021/11/27 07:42:52;;;;;;;7.07;4.80;;;;;;;3.51;81.93;98048.00;5030496;28;20261;-80
2021/11/27 07:45:19;;;;;;;5.73;4.43;;;;;;;3.52;81.48;98051.47;5032051;28;20214;-79
2021/11/27 07:47:46;;;;;;;6.63;5.23;;;;;;;3.53;81.25;98066.31;5032485;28;20660;-79
2021/11/27 07:50:13;;;;;;;5.00;4.40;;;;;;;3.53;81.24;98055.78;5046421;28;20574;-79
2021/11/27 07:52:41;;;;;;;6.23;4.47;;;;;;;3.55;81.28;98061.75;5038819;28;20206;-79
2021/11/27 07:55:08;;;;;;;5.80;4.90;;;;;;;3.54;81.80;98060.94;5040417;28;20228;-79
2021/11/27 07:57:35;;;;;;;8.30;5.13;;;;;;;3.55;82.07;98061.75;5040443;28;20221;-79
2021/11/27 08:00:02;;;;;;;7.33;4.80;;;;;;;3.57;81.44;98062.50;5040265;28;20587;-79
2021/11/27 08:02:28;;;;;;;6.53;4.60;;;;;;;3.59;81.58;98063.19;5031208;28;20199;-80
2021/11/27 08:04:56;;;;;;;6.67;4.27;;;;;;;3.60;82.40;98062.22;5035441;28;20209;-79
2021/11/27 08:07:22;;;;;;;5.67;4.90;;;;;;;3.61;81.57;98064.75;5040652;28;20209;-79
2021/11/27 08:09:49;;;;;;;6.20;4.37;;;;;;;3.63;82.36;98073.38;5032867;28;20218;-80
2021/11/27 08:12:16;;;;;;;5.60;4.10;;;;;;;3.64;81.95;98067.16;5037112;28;20234;-79
2021/11/27 08:14:42;;;;;;;5.70;4.47;;;;;;;3.66;81.55;98080.19;5040564;28;20207;-79
2021/11/27 08:17:09;;;;;;;5.83;4.80;;;;;;;3.66;81.70;98075.78;5040245;28;20202;-78
2021/11/27 08:19:35;;;;;;;6.97;4.67;;;;;;;3.68;82.19;98073.03;5040052;28;20574;-79
2021/11/27 08:22:03;;;;;;;6.90;4.83;;;;;;;3.69;82.43;98085.22;5041838;28;20202;-79
2021/11/27 08:24:30;;;;;;;5.77;4.23;;;;;;;3.70;82.49;98086.91;5045520;28;20212;-79
2021/11/27 08:26:57;;;;;;;6.93;4.63;;;;;;;3.70;81.97;98086.91;5047148;28;20208;-79
2021/11/27 08:29:23;;;;;;;4.90;4.03;;;;;;;3.71;81.90;98094.69;5033438;28;20230;-80
2021/11/27 08:31:50;;;;;;;5.63;4.30;;;;;;;3.71;81.84;98099.13;5049721;28;20231;-79
2021/11/27 08:34:17;;;;;;;31.00;7.10;;;;;;;3.71;81.70;98099.13;5025002;28;20203;-79
2021/11/27 08:36:43;;;;;;;7.63;4.37;;;;;;;3.71;82.31;98109.66;5042762;28;20702;-80
2021/11/27 08:39:11;;;;;;;5.03;3.97;;;;;;;3.73;82.67;98107.75;5051103;28;20229;-79
2021/11/27 08:41:38;;;;;;;5.20;4.00;;;;;;;3.74;82.50;98106.78;5042143;28;20586;-78
2021/11/27 08:44:05;;;;;;;5.33;4.10;;;;;;;3.75;82.13;98106.69;5054691;28;20232;-80
2021/11/27 08:46:32;;;;;;;6.03;4.03;;;;;;;3.77;82.60;98112.63;5034894;28;20203;-79
2021/11/27 08:48:59;;;;;;;4.43;3.77;;;;;;;3.78;82.79;98111.69;5052581;28;20240;-79
2021/11/27 08:51:25;;;;;;;7.10;4.30;;;;;;;3.78;82.37;98105.56;5050159;28;20229;-79
2021/11/27 08:53:52;;;;;;;4.50;3.83;;;;;;;3.79;82.53;98113.34;5057505;28;20228;-79
2021/11/27 08:56:20;;;;;;;8.80;3.97;;;;;;;3.80;82.31;98108.94;5031638;28;20203;-79
2021/11/27 08:58:46;;;;;;;5.47;4.50;;;;;;;3.82;82.95;98112.28;5042911;28;20248;-80
2021/11/27 09:01:14;;;;;;;4.63;3.63;;;;;;;3.82;82.82;98110.50;5042680;28;20203;-81
2021/11/27 09:03:42;;;;;;;5.37;4.27;;;;;;;3.84;82.91;98108.59;5030188;28;20199;-80
2021/11/27 09:06:09;;;;;;;4.17;3.77;;;;;;;3.84;82.98;98110.38;5051823;28;20210;-80
2021/11/27 09:08:37;;;;;;;7.17;4.57;;;;;;;3.84;82.39;98115.66;5049756;28;20213;-79
2021/11/27 09:11:05;;;;;;;6.47;4.83;;;;;;;3.85;83.03;98112.06;5053978;28;20248;-80
2021/11/27 09:13:34;;;;;;;6.23;4.10;;;;;;;3.85;82.43;98112.06;5048285;28;20649;-81
2021/11/27 09:16:01;;;;;;;6.57;4.10;;;;;;;3.83;83.17;98120.06;5050960;28;20216;-80
2021/11/27 09:18:29;;;;;;;5.53;4.93;;;;;;;3.83;83.22;98121.88;5054259;28;20296;-81
2021/11/27 09:20:56;;;;;;;8.00;5.07;;;;;;;3.84;82.66;98119.13;5034070;28;20214;-81
2021/11/27 09:23:22;;;;;;;4.17;3.30;;;;;;;3.84;82.68;98131.44;5056168;28;20212;-80
2021/11/27 09:25:49;;;;;;;4.20;3.80;;;;;;;3.84;83.28;98136.72;5056148;28;20698;-80
2021/11/27 09:28:16;;;;;;;4.70;3.83;;;;;;;3.87;83.29;98144.38;5041314;28;20309;-80
2021/11/27 09:30:44;;;;;;;3.00;2.60;;;;;;;3.89;82.91;98139.00;5034471;28;20245;-81
2021/11/27 09:33:11;;;;;;;4.23;3.43;;;;;;;3.88;82.99;98148.69;5034222;28;20206;-81
2021/11/27 09:35:38;;;;;;;4.07;3.67;;;;;;;3.90;83.03;98140.69;5028073;28;20218;-82
2021/11/27 09:38:04;;;;;;;4.37;3.97;;;;;;;3.91;83.06;98143.22;5024983;28;20289;-81
2021/11/27 09:40:38;;;;;;;4.60;3.57;;;;;;;3.92;83.34;98142.25;5027916;28;20290;-80
2021/11/27 09:43:06;;;;;;;2.63;2.43;;;;;;;3.95;83.31;98144.63;5027028;28;20202;-80
2021/11/27 09:45:34;;;;;;;2.10;1.90;;;;;;;3.97;82.95;98153.25;5027573;28;20207;-81
2021/11/27 09:48:03;;;;;;;3.50;2.53;;;;;;;3.99;83.40;98158.41;5025845;28;20217;-81
2021/11/27 09:50:31;;;;;;;1.80;1.60;;;;;;;4.01;83.33;98157.34;5033610;28;20221;-81
2021/11/27 09:52:59;;;;;;;2.70;2.30;;;;;;;4.03;83.08;98160.69;5024790;28;20284;-80
2021/11/27 09:55:25;;;;;;;2.30;2.10;;;;;;;4.07;83.16;98158.66;5018528;28;20593;-80
2021/11/27 09:57:52;;;;;;;2.13;1.90;;;;;;;4.08;82.69;98166.47;5028003;28;20595;-80
2021/11/27 10:00:21;;;;;;;1.93;1.47;;;;;;;4.09;82.59;98164.66;5030270;28;20240;-80
2021/11/27 10:02:54;;;;;;;2.50;1.60;;;;;;;4.11;82.31;98165.38;5026898;28;20214;-80
2021/11/27 10:05:23;;;;;;;3.37;2.30;;;;;;;4.12;83.03;98169.72;5027100;28;20648;-80
2021/11/27 10:07:52;;;;;;;2.67;2.10;;;;;;;4.14;82.70;98170.41;5022915;28;20732;-80
2021/11/27 10:10:19;;;;;;;2.20;1.43;;;;;;;4.13;82.47;98161.66;5028607;28;20227;-80
2021/11/27 10:12:47;;;;;;;1.40;1.30;;;;;;;4.15;82.42;98172.91;5030641;28;20233;-80
2021/11/27 10:15:14;;;;;;;1.40;1.30;;;;;;;4.16;81.91;98171.97;5021516;28;20217;-80
2021/11/27 10:17:41;;;;;;;2.10;1.30;;;;;;;4.16;82.53;98179.88;5030964;28;20253;-79
2021/11/27 10:20:09;;;;;;;1.40;1.30;;;;;;;4.18;82.00;98183.22;5028994;28;20233;-79
2021/11/27 10:22:47;;;;;;;1.20;1.10;;;;;;;4.16;81.71;98174.59;5025575;28;20199;-79
2021/11/27 10:25:30;;;;;;;2.30;1.63;;;;;;;4.17;81.58;98180.69;5020611;28;20691;-80
2021/11/27 10:28:06;;;;;;;1.27;0.87;;;;;;;4.21;81.40;98183.94;5025467;28;20206;-79
2021/11/27 10:30:48;;;;;;;3.17;1.20;;;;;;;4.19;82.02;98184.06;5032014;28;20225;-82
2021/11/27 10:33:16;;;;;;;1.33;1.10;;;;;;;4.21;81.67;98181.31;5027305;28;20214;-79
2021/11/27 10:35:52;;;;;;;2.13;1.43;;;;;;;4.24;81.50;98183.72;5031683;28;20199;-80
2021/11/27 10:38:20;;;;;;;1.40;1.20;;;;;;;4.26;81.85;98179.19;5035756;28;20197;-80
2021/11/27 10:40:56;;;;;;;1.60;1.50;;;;;;;4.25;81.64;98180.13;5024857;28;20233;-81
2021/11/27 10:43:23;;;;;;;1.67;1.40;;;;;;;4.28;81.87;98185.16;5024712;28;20727;-80
2021/11/27 10:45:50;;;;;;;1.30;1.20;;;;;;;4.31;81.52;98188.38;5033306;28;20210;-80
2021/11/27 10:48:19;;;;;;;1.23;1.00;;;;;;;4.34;81.92;98184.69;5034110;28;20205;-81
2021/11/27 10:50:49;;;;;;;1.80;1.20;;;;;;;4.36;82.08;98186.25;5028549;28;20232;-82
2021/11/27 10:53:18;;;;;;;1.37;1.27;;;;;;;4.39;81.68;98185.16;5025716;28;20230;-81
2021/11/27 10:55:46;;;;;;;1.13;1.03;;;;;;;4.42;81.96;98192.84;5033213;28;20230;-81
2021/11/27 10:58:15;;;;;;;1.63;1.30;;;;;;;4.43;81.25;98190.09;5034045;28;20203;-81
2021/11/27 11:00:43;;;;;;;1.00;0.90;;;;;;;4.45;81.57;98193.44;5034636;28;20222;-81
2021/11/27 11:03:26;;;;;;;1.60;1.50;;;;;;;4.46;81.17;98191.66;5028372;28;20206;-81
2021/11/27 11:05:54;;;;;;;1.13;1.03;;;;;;;4.49;81.19;98200.13;5031273;28;20265;-82
2021/11/27 11:08:31;;;;;;;1.20;1.10;;;;;;;4.50;81.18;98200.97;5027428;28;20203;-81
2021/11/27 11:11:00;;;;;;;1.00;0.90;;;;;;;4.54;80.68;98202.44;5038763;28;20240;-81
2021/11/27 11:13:30;;;;;;;1.57;1.30;;;;;;;4.53;81.14;98206.03;5030711;28;20583;-80
2021/11/27 11:15:56;;;;;;;1.23;1.10;;;;;;;4.52;80.87;98212.25;5034110;28;20566;-81
2021/11/27 11:18:26;;;;;;;1.30;1.10;;;;;;;4.51;80.68;98210.56;5044477;28;20213;-81
2021/11/27 11:20:53;;;;;;;1.90;1.13;;;;;;;4.54;80.61;98211.19;5031161;28;20217;-80
2021/11/27 11:23:23;;;;;;;1.63;1.40;;;;;;;4.51;80.92;98215.84;5034183;28;20199;-80
2021/11/27 11:26:06;;;;;;;1.50;1.40;;;;;;;4.52;80.31;98222.78;5034060;28;20207;-80
2021/11/27 11:28:35;;;;;;;1.03;0.90;;;;;;;4.55;80.84;98217.28;5035813;28;20209;-81
2021/11/27 11:31:06;;;;;;;2.03;1.30;;;;;;;4.54;80.45;98218.25;5034691;28;20213;-81
2021/11/27 11:33:35;;;;;;;4.17;2.27;;;;;;;4.55;80.34;98222.56;5031264;28;20599;-81
2021/11/27 11:36:04;;;;;;;3.40;1.70;;;;;;;4.58;80.55;98221.50;5025862;28;20672;-81
2021/11/27 11:38:31;;;;;;;1.37;1.23;;;;;;;4.59;80.41;98218.72;5028558;28;20229;-80
2021/11/27 11:40:58;;;;;;;1.70;1.60;;;;;;;4.59;80.39;98223.16;5028343;28;20220;-80
2021/11/27 11:43:26;;;;;;;1.90;1.50;;;;;;;4.59;79.98;98224.00;5024558;28;20213;-81
2021/11/27 11:45:52;;;;;;;2.90;1.97;;;;;;;4.59;80.19;98231.91;5031651;28;20202;-81